createdAt,value
2024-01-18T00:01:54.375Z,97378.13
2024-01-18T00:04:20.991Z,97377.84
2024-01-18T00:06:47.798Z,97384.94
2024-01-18T00:09:14.337Z,97383.56
2024-01-18T00:11:40.789Z,97382.59
2024-01-18T00:14:07.250Z,97382.28
2024-01-18T00:16:33.680Z,97374.34
2024-01-18T00:19:01.827Z,97366.50
2024-01-18T00:21:28.568Z,97374.00
2024-01-18T00:23:55.115Z,97379.25
2024-01-18T00:26:21.584Z,97380.22
2024-01-18T00:28:48.226Z,97379.66
2024-01-18T00:31:14.985Z,97389.81
2024-01-18T00:33:41.489Z,97390.41
2024-01-18T00:36:10.464Z,97390.22
2024-01-18T00:38:36.945Z,97392.94
2024-01-18T00:41:03.686Z,97399.91
2024-01-18T00:43:30.111Z,97415.56
2024-01-18T00:45:56.575Z,97430.22
2024-01-18T00:48:23.251Z,97430.91
2024-01-18T00:50:49.796Z,97434.25
2024-01-18T00:53:17.525Z,97438.88
2024-01-18T00:55:43.923Z,97446.25
2024-01-18T00:58:10.379Z,97441.91
2024-01-18T01:00:37.008Z,97428.88
2024-01-18T01:03:03.677Z,97434.97
2024-01-18T01:05:30.093Z,97452.72
2024-01-18T01:07:56.553Z,97476.81
2024-01-18T01:10:24.615Z,97476.69
2024-01-18T01:12:51.037Z,97469.69
2024-01-18T01:15:17.852Z,97460.22
2024-01-18T01:17:44.446Z,97453.94
2024-01-18T01:20:11.593Z,97457.03
2024-01-18T01:22:38.077Z,97455.09
2024-01-18T01:25:05.324Z,97465.06
2024-01-18T01:27:33.171Z,97472.91
2024-01-18T01:29:59.810Z,97474.75
2024-01-18T01:32:26.251Z,97457.25
2024-01-18T01:34:52.733Z,97457.84
2024-01-18T01:37:19.538Z,97469.03
2024-01-18T01:39:45.938Z,97473.16
2024-01-18T01:42:12.445Z,97471.22
2024-01-18T01:44:40.194Z,97475.72
2024-01-18T01:47:06.639Z,97477.09
2024-01-18T01:49:33.244Z,97481.53
2024-01-18T01:51:59.743Z,97484.03
2024-01-18T01:54:27.307Z,97489.03
2024-01-18T01:56:55.306Z,97496.56
2024-01-18T01:59:26.273Z,97489.88
2024-01-18T02:01:54.177Z,97486.75
2024-01-18T02:04:21.817Z,97489.69
2024-01-18T02:06:52.067Z,97499.34
2024-01-18T02:09:19.417Z,97503.84
2024-01-18T02:11:46.018Z,97503.94
2024-01-18T02:14:13.180Z,97509.38
2024-01-18T02:16:39.865Z,97514.91
2024-01-18T02:19:07.751Z,97515.28
2024-01-18T02:21:34.422Z,97512.88
2024-01-18T02:24:11.798Z,97512.63
2024-01-18T02:26:39.558Z,97510.34
2024-01-18T02:29:06.049Z,97505.63
2024-01-18T02:31:32.456Z,97502.56
2024-01-18T02:33:59.305Z,97507.25
2024-01-18T02:36:26.387Z,97504.28
2024-01-18T02:38:53.055Z,97502.03
2024-01-18T02:41:20.073Z,97495.59
2024-01-18T02:43:48.113Z,97505.16
2024-01-18T02:46:16.744Z,97501.63
2024-01-18T02:48:44.151Z,97496.50
2024-01-18T02:51:10.623Z,97504.16
2024-01-18T02:53:37.070Z,97502.66
2024-01-18T02:56:03.997Z,97494.72
2024-01-18T02:58:30.394Z,97498.78
2024-01-18T03:00:58.178Z,97497.16
2024-01-18T03:03:24.727Z,97502.66
2024-01-18T03:05:51.166Z,97505.66
2024-01-18T03:08:17.954Z,97493.59
2024-01-18T03:10:44.391Z,97511.22
2024-01-18T03:13:10.819Z,97508.00
2024-01-18T03:15:37.274Z,97516.69
2024-01-18T03:18:05.610Z,97525.72
2024-01-18T03:20:32.533Z,97527.03
2024-01-18T03:22:58.961Z,97520.91
2024-01-18T03:25:25.394Z,97528.66
2024-01-18T03:27:51.821Z,97531.34
2024-01-18T03:30:18.289Z,97528.41
2024-01-18T03:32:44.827Z,97529.84
2024-01-18T03:35:12.636Z,97527.91
2024-01-18T03:37:39.042Z,97531.59
2024-01-18T03:40:06.787Z,97532.56
2024-01-18T03:42:33.469Z,97533.25
2024-01-18T03:44:59.986Z,97525.00
2024-01-18T03:47:26.493Z,97523.28
2024-01-18T03:49:53.063Z,97524.72
2024-01-18T03:52:21.021Z,97521.09
2024-01-18T03:54:47.642Z,97520.44
2024-01-18T03:57:14.279Z,97525.63
2024-01-18T03:59:40.768Z,97519.19
2024-01-18T04:02:07.316Z,97526.06
2024-01-18T04:04:33.852Z,97526.00
2024-01-18T04:07:00.465Z,97531.91
2024-01-18T04:09:28.297Z,97534.50
2024-01-18T04:11:54.856Z,97524.72
2024-01-18T04:14:21.421Z,97528.63
2024-01-18T04:16:47.830Z,97531.06
2024-01-18T04:19:14.389Z,97533.38
2024-01-18T04:21:40.975Z,97537.56
2024-01-18T04:24:07.638Z,97543.72
2024-01-18T04:26:35.489Z,97536.69
2024-01-18T04:29:02.062Z,97535.31
2024-01-18T04:31:28.496Z,97540.97
2024-01-18T04:33:55.916Z,97552.44
2024-01-18T04:36:22.415Z,97564.47
2024-01-18T04:38:49.172Z,97568.94
2024-01-18T04:41:15.566Z,97575.34
2024-01-18T04:43:43.332Z,97578.41
2024-01-18T04:46:10.176Z,97584.47
2024-01-18T04:48:37.269Z,97587.03
2024-01-18T04:51:04.247Z,97594.38
2024-01-18T04:53:30.849Z,97596.34
2024-01-18T04:55:57.484Z,97604.41
2024-01-18T04:58:23.954Z,97603.25
2024-01-18T05:00:51.848Z,97605.97
2024-01-18T05:03:18.521Z,97594.00
2024-01-18T05:05:45.210Z,97594.38
2024-01-18T05:08:11.883Z,97600.88
2024-01-18T05:10:38.354Z,97593.22
2024-01-18T05:13:05.058Z,97607.03
2024-01-18T05:15:31.735Z,97609.63
2024-01-18T05:18:01.705Z,97608.66
2024-01-18T05:20:28.524Z,97609.63
2024-01-18T05:22:55.082Z,97615.19
2024-01-18T05:25:21.611Z,97611.59
2024-01-18T05:27:48.030Z,97613.22
2024-01-18T05:30:14.746Z,97616.78
2024-01-18T05:32:41.245Z,97636.25
2024-01-18T05:35:09.328Z,97638.16
2024-01-18T05:37:35.904Z,97637.88
2024-01-18T05:40:02.348Z,97638.63
2024-01-18T05:42:28.948Z,97648.94
2024-01-18T05:44:55.461Z,97638.34
2024-01-18T05:47:21.943Z,97638.22
2024-01-18T05:49:48.402Z,97631.53
2024-01-18T05:52:16.326Z,97646.78
2024-01-18T05:54:42.882Z,97655.28
2024-01-18T05:57:09.371Z,97653.47
2024-01-18T05:59:35.800Z,97663.44
2024-01-18T06:02:02.309Z,97666.47
2024-01-18T06:04:28.879Z,97659.22
2024-01-18T06:06:55.488Z,97668.88
2024-01-18T06:09:23.435Z,97659.69
2024-01-18T06:11:50.526Z,97659.13
2024-01-18T06:14:16.940Z,97673.00
2024-01-18T06:16:43.403Z,97676.94
2024-01-18T06:19:11.233Z,97686.78
2024-01-18T06:21:38.910Z,97691.00
2024-01-18T06:24:06.221Z,97695.81
2024-01-18T06:26:34.062Z,97699.34
2024-01-18T06:29:00.575Z,97698.28
2024-01-18T06:31:27.337Z,97695.41
2024-01-18T06:33:54.171Z,97707.00
2024-01-18T06:36:20.633Z,97711.50
2024-01-18T06:38:47.116Z,97716.75
2024-01-18T06:41:13.553Z,97724.59
2024-01-18T06:43:41.303Z,97724.22
2024-01-18T06:46:14.557Z,97719.34
2024-01-18T06:48:41.071Z,97733.88
2024-01-18T06:51:07.499Z,97729.75
2024-01-18T06:53:34.116Z,97724.78
2024-01-18T06:56:00.605Z,97741.53
2024-01-18T06:58:27.194Z,97739.56
2024-01-18T07:00:55.065Z,97742.91
2024-01-18T07:03:21.600Z,97737.75
2024-01-18T07:05:48.044Z,97740.75
2024-01-18T07:08:14.542Z,97752.19
2024-01-18T07:10:40.994Z,97762.41
2024-01-18T07:13:07.408Z,97769.25
2024-01-18T07:15:34.011Z,97757.16
2024-01-18T07:18:01.907Z,97762.03
2024-01-18T07:20:29.819Z,97766.16
2024-01-18T07:22:56.297Z,97772.44
2024-01-18T07:25:22.733Z,97775.16
2024-01-18T07:27:49.275Z,97779.09
2024-01-18T07:30:15.990Z,97788.69
2024-01-18T07:32:42.499Z,97779.28
2024-01-18T07:35:10.300Z,97789.97
2024-01-18T07:37:37.436Z,97788.28
2024-01-18T07:40:04.652Z,97787.47
2024-01-18T07:42:31.143Z,97793.50
2024-01-18T07:44:57.720Z,97797.03
2024-01-18T07:47:24.183Z,97799.72
2024-01-18T07:49:50.961Z,97801.94
2024-01-18T07:52:19.307Z,97803.13
2024-01-18T07:54:45.827Z,97817.63
2024-01-18T07:57:12.540Z,97819.75
2024-01-18T07:59:38.960Z,97835.09
2024-01-18T08:02:05.450Z,97834.38
2024-01-18T08:04:31.879Z,97834.72
2024-01-18T08:07:00.667Z,97840.13
2024-01-18T08:09:28.972Z,97844.53
2024-01-18T08:11:55.393Z,97847.53
2024-01-18T08:14:21.871Z,97851.28
2024-01-18T08:16:48.314Z,97856.16
2024-01-18T08:19:14.900Z,97851.66
2024-01-18T08:21:44.980Z,97853.91
2024-01-18T08:24:12.086Z,97854.91
2024-01-18T08:26:42.119Z,97856.47
2024-01-18T08:29:09.084Z,97862.50
2024-01-18T08:31:35.480Z,97865.72
2024-01-18T08:34:02.021Z,97871.03
2024-01-18T08:36:28.534Z,97874.44
2024-01-18T08:38:54.975Z,97869.34
2024-01-18T08:41:21.461Z,97869.09
2024-01-18T08:43:49.352Z,97882.88
2024-01-18T08:46:15.797Z,97890.00
2024-01-18T08:48:42.636Z,97892.75
2024-01-18T08:51:09.309Z,97898.38
2024-01-18T08:53:36.013Z,97896.00
2024-01-18T08:56:02.706Z,97906.44
2024-01-18T08:58:30.555Z,97901.44
2024-01-18T09:00:58.378Z,97917.75
2024-01-18T09:03:24.916Z,97916.31
2024-01-18T09:05:56.972Z,97911.06
2024-01-18T09:08:23.605Z,97912.50
2024-01-18T09:10:50.238Z,97917.16
2024-01-18T09:13:19.727Z,97930.53
2024-01-18T09:15:46.859Z,97932.50
2024-01-18T09:18:14.766Z,97937.50
2024-01-18T09:20:41.480Z,97944.25
2024-01-18T09:23:13.044Z,97950.75
2024-01-18T09:25:40.113Z,97953.81
2024-01-18T09:28:07.089Z,97962.28
2024-01-18T09:30:33.625Z,97960.59
2024-01-18T09:33:00.139Z,97960.53
2024-01-18T09:35:28.038Z,97978.25
2024-01-18T09:37:54.508Z,97972.66
2024-01-18T09:40:21.235Z,97977.41
2024-01-18T09:42:48.714Z,97987.09
2024-01-18T09:45:15.652Z,97982.16
2024-01-18T09:47:45.538Z,97987.38
2024-01-18T09:50:12.576Z,98005.28
2024-01-18T09:52:40.334Z,98024.59
2024-01-18T09:55:07.570Z,98021.00
2024-01-18T09:57:39.546Z,98020.88
2024-01-18T10:00:12.936Z,98026.84
2024-01-18T10:02:39.889Z,98039.59
2024-01-18T10:05:08.158Z,98033.88
2024-01-18T10:07:34.774Z,98041.00
2024-01-18T10:10:02.729Z,98047.25
2024-01-18T10:12:31.262Z,98052.34
2024-01-18T10:14:57.887Z,98062.06
2024-01-18T10:17:24.744Z,98060.63
2024-01-18T10:19:51.411Z,98066.09
2024-01-18T10:22:21.798Z,98071.59
2024-01-18T10:24:48.498Z,98073.91
2024-01-18T10:27:19.139Z,98080.34
2024-01-18T10:29:45.557Z,98068.28
2024-01-18T10:32:12.013Z,98082.72
2024-01-18T10:34:39.130Z,98074.19
2024-01-18T10:37:06.507Z,98079.69
2024-01-18T10:39:39.142Z,98079.25
2024-01-18T10:42:07.361Z,98087.19
2024-01-18T10:44:38.885Z,98090.72
2024-01-18T10:47:08.919Z,98087.75
2024-01-18T10:49:36.792Z,98099.69
2024-01-18T10:52:03.892Z,98107.88
2024-01-18T10:54:36.237Z,98105.78
2024-01-18T10:57:04.712Z,98082.19
2024-01-18T10:59:32.022Z,98095.44
2024-01-18T11:02:01.190Z,98097.44
2024-01-18T11:04:29.103Z,98106.88
2024-01-18T11:06:56.710Z,98117.34
2024-01-18T11:09:25.844Z,98116.84
2024-01-18T11:11:53.539Z,98121.09
2024-01-18T11:14:20.475Z,98136.16
2024-01-18T11:16:47.140Z,98132.78
2024-01-18T11:19:18.405Z,98131.66
2024-01-18T11:21:44.965Z,98131.06
2024-01-18T11:24:11.811Z,98142.88
2024-01-18T11:26:38.378Z,98140.38
2024-01-18T11:29:17.212Z,98144.41
2024-01-18T11:31:47.008Z,98145.44
2024-01-18T11:34:25.784Z,98148.06
2024-01-18T11:36:52.284Z,98151.25
2024-01-18T11:39:56.424Z,98159.53
2024-01-18T11:42:24.994Z,98160.03
2024-01-18T11:44:55.750Z,98164.09
2024-01-18T11:47:23.143Z,98166.50
2024-01-18T11:49:51.096Z,98170.41
2024-01-18T11:52:17.788Z,98171.63
2024-01-18T11:54:47.887Z,98165.22
2024-01-18T11:57:14.485Z,98172.03
2024-01-18T11:59:41.467Z,98173.34
2024-01-18T12:02:08.042Z,98178.53
2024-01-18T12:04:34.822Z,98176.75
2024-01-18T12:07:03.439Z,98174.97
2024-01-18T12:09:30.136Z,98179.81
2024-01-18T12:11:57.767Z,98182.03
2024-01-18T12:14:24.452Z,98191.44
2024-01-18T12:16:51.013Z,98189.78
2024-01-18T12:19:30.374Z,98189.44
2024-01-18T12:21:57.042Z,98198.56
2024-01-18T12:24:25.452Z,98188.28
2024-01-18T12:26:51.969Z,98207.75
2024-01-18T12:29:19.707Z,98209.22
2024-01-18T12:31:46.701Z,98215.81
2024-01-18T12:34:13.311Z,98208.25
2024-01-18T12:36:40.276Z,98205.69
2024-01-18T12:39:07.208Z,98212.28
2024-01-18T12:41:34.988Z,98224.06
2024-01-18T12:44:05.367Z,98232.31
2024-01-18T12:46:31.910Z,98230.28
2024-01-18T12:48:58.645Z,98238.78
2024-01-18T12:51:25.192Z,98239.09
2024-01-18T12:53:53.676Z,98241.53
2024-01-18T12:56:20.565Z,98230.72
2024-01-18T12:58:48.533Z,98236.69
2024-01-18T13:01:36.175Z,98246.59
2024-01-18T13:04:13.774Z,98246.22
2024-01-18T13:06:50.611Z,98248.53
2024-01-18T13:09:24.328Z,98259.63
2024-01-18T13:11:51.110Z,98262.78
2024-01-18T13:14:19.303Z,98270.00
2024-01-18T13:16:47.348Z,98276.38
2024-01-18T13:19:15.274Z,98282.75
2024-01-18T13:21:42.680Z,98279.25
2024-01-18T13:24:09.566Z,98287.38
2024-01-18T13:26:37.194Z,98299.31
2024-01-18T13:29:03.982Z,98310.97
2024-01-18T13:31:31.940Z,98303.03
2024-01-18T13:33:58.541Z,98304.31
2024-01-18T13:36:25.520Z,98298.59
2024-01-18T13:38:52.027Z,98307.22
2024-01-18T13:41:19.045Z,98318.78
2024-01-18T13:43:48.123Z,98325.59
2024-01-18T13:46:15.177Z,98315.50
2024-01-18T13:48:43.704Z,98325.16
2024-01-18T13:51:10.414Z,98337.91
2024-01-18T13:53:37.709Z,98337.78
2024-01-18T13:56:04.612Z,98343.00
2024-01-18T13:58:31.095Z,98333.88
2024-01-18T14:00:57.658Z,98349.31
2024-01-18T14:03:24.093Z,98355.91
2024-01-18T14:05:52.209Z,98363.47
2024-01-18T14:08:18.663Z,98364.06
2024-01-18T14:10:45.073Z,98374.44
2024-01-18T14:13:11.650Z,98377.66
2024-01-18T14:15:38.091Z,98378.47
2024-01-18T14:18:05.910Z,98391.31
2024-01-18T14:20:32.694Z,98400.94
2024-01-18T14:23:00.435Z,98405.16
2024-01-18T14:25:27.182Z,98412.19
2024-01-18T14:27:53.662Z,98426.94
2024-01-18T14:30:20.188Z,98431.13
2024-01-18T14:32:47.644Z,98431.06
2024-01-18T14:35:14.176Z,98435.25
2024-01-18T14:37:40.665Z,98440.66
2024-01-18T14:40:10.339Z,98453.00
2024-01-18T14:42:36.857Z,98458.63
2024-01-18T14:45:05.876Z,98462.63
2024-01-18T14:47:32.325Z,98465.75
2024-01-18T14:49:58.859Z,98469.44
2024-01-18T14:52:25.487Z,98472.22
2024-01-18T14:54:52.904Z,98470.50
2024-01-18T14:57:22.152Z,98474.63
2024-01-18T14:59:48.690Z,98485.66
2024-01-18T15:02:15.846Z,98490.75
2024-01-18T15:04:42.456Z,98496.03
2024-01-18T15:07:09.731Z,98500.09
2024-01-18T15:09:36.673Z,98501.75
2024-01-18T15:12:04.263Z,98507.13
2024-01-18T15:14:34.564Z,98521.88
2024-01-18T15:17:02.318Z,98516.69
2024-01-18T15:19:28.870Z,98528.53
2024-01-18T15:21:55.510Z,98528.22
2024-01-18T15:24:22.052Z,98532.09
2024-01-18T15:26:49.754Z,98546.84
2024-01-18T15:29:16.241Z,98546.25
2024-01-18T15:31:44.161Z,98556.38
2024-01-18T15:34:10.915Z,98562.31
2024-01-18T15:36:40.913Z,98573.16
2024-01-18T15:39:07.560Z,98574.59
2024-01-18T15:41:34.137Z,98575.69
2024-01-18T15:44:00.577Z,98572.81
2024-01-18T15:46:27.148Z,98582.16
2024-01-18T15:48:55.123Z,98593.75
2024-01-18T15:51:21.792Z,98608.34
2024-01-18T15:53:48.218Z,98614.06
2024-01-18T15:56:14.623Z,98611.38
2024-01-18T15:58:41.191Z,98607.66
2024-01-18T16:01:10.616Z,98640.28
2024-01-18T16:03:37.245Z,98635.88
2024-01-18T16:06:06.946Z,98646.56
2024-01-18T16:08:33.570Z,98655.41
2024-01-18T16:11:02.732Z,98665.56
2024-01-18T16:13:29.538Z,98668.69
2024-01-18T16:15:57.028Z,98676.25
2024-01-18T16:18:23.913Z,98683.53
2024-01-18T16:20:50.383Z,98687.34
2024-01-18T16:23:18.434Z,98695.06
2024-01-18T16:25:44.985Z,98700.56
2024-01-18T16:28:11.426Z,98699.97
2024-01-18T16:30:37.883Z,98704.56
2024-01-18T16:33:04.484Z,98708.31
2024-01-18T16:35:31.015Z,98719.78
2024-01-18T16:37:57.543Z,98719.75
2024-01-18T16:40:25.375Z,98727.31
2024-01-18T16:42:51.834Z,98730.53
2024-01-18T16:45:18.347Z,98734.94
2024-01-18T16:47:44.770Z,98741.97
2024-01-18T16:50:11.219Z,98750.53
2024-01-18T16:52:37.628Z,98755.72
2024-01-18T16:55:04.925Z,98754.38
2024-01-18T16:57:33.563Z,98759.22
2024-01-18T17:00:00.817Z,98776.38
2024-01-18T17:02:27.468Z,98776.84
2024-01-18T17:04:54.080Z,98793.31
2024-01-18T17:07:20.591Z,98801.63
2024-01-18T17:09:47.617Z,98797.41
2024-01-18T17:12:14.473Z,98812.53
2024-01-18T17:14:42.572Z,98813.31
2024-01-18T17:17:09.255Z,98815.13
2024-01-18T17:19:35.695Z,98819.25
2024-01-18T17:22:02.140Z,98827.38
2024-01-18T17:24:28.725Z,98840.66
2024-01-18T17:26:55.285Z,98838.72
2024-01-18T17:29:22.220Z,98845.13
2024-01-18T17:31:49.972Z,98849.53
2024-01-18T17:34:16.442Z,98856.06
2024-01-18T17:36:42.875Z,98864.91
2024-01-18T17:39:09.277Z,98859.44
2024-01-18T17:41:35.745Z,98869.81
2024-01-18T17:44:03.003Z,98876.06
2024-01-18T17:46:29.433Z,98883.34
2024-01-18T17:48:59.058Z,98878.50
2024-01-18T17:51:25.891Z,98890.16
2024-01-18T17:53:52.615Z,98887.72
2024-01-18T17:56:19.289Z,98892.84
2024-01-18T17:58:45.741Z,98895.69
2024-01-18T18:01:12.464Z,98900.38
2024-01-18T18:03:39.025Z,98904.41
2024-01-18T18:06:07.906Z,98917.88
2024-01-18T18:08:34.553Z,98915.97
2024-01-18T18:11:03.173Z,98923.09
2024-01-18T18:13:30.058Z,98925.38
2024-01-18T18:15:56.728Z,98935.09
2024-01-18T18:18:23.385Z,98942.31
2024-01-18T18:20:49.906Z,98934.38
2024-01-18T18:23:18.199Z,98955.75
2024-01-18T18:25:44.832Z,98948.84
2024-01-18T18:28:11.258Z,98960.38
2024-01-18T18:30:41.308Z,98952.50
2024-01-18T18:33:20.335Z,98937.78
2024-01-18T18:35:46.841Z,98952.41
2024-01-18T18:38:18.558Z,98951.09
2024-01-18T18:40:49.113Z,98964.94
2024-01-18T18:43:15.953Z,98977.56
2024-01-18T18:45:42.537Z,98969.06
2024-01-18T18:48:09.084Z,98976.13
2024-01-18T18:50:35.641Z,98986.25
2024-01-18T18:53:02.555Z,98998.00
2024-01-18T18:55:29.002Z,98994.63
2024-01-18T18:57:56.784Z,99003.78
2024-01-18T19:00:23.264Z,99016.63
2024-01-18T19:02:49.812Z,99017.59
2024-01-18T19:05:16.489Z,99019.88
2024-01-18T19:07:44.237Z,99022.09
2024-01-18T19:10:10.812Z,99032.97
2024-01-18T19:12:37.287Z,99033.13
2024-01-18T19:15:06.157Z,99037.03
2024-01-18T19:17:32.669Z,99055.56
2024-01-18T19:19:59.183Z,99040.41
2024-01-18T19:22:25.675Z,99055.41
2024-01-18T19:24:54.104Z,99049.78
2024-01-18T19:27:20.563Z,99079.19
2024-01-18T19:29:47.959Z,99079.59
2024-01-18T19:32:15.764Z,99093.97
2024-01-18T19:34:42.250Z,99082.69
2024-01-18T19:37:08.785Z,99102.16
2024-01-18T19:39:40.506Z,99101.03
2024-01-18T19:42:07.447Z,99110.38
2024-01-18T19:44:34.167Z,99117.56
2024-01-18T19:47:02.340Z,99116.47
2024-01-18T19:49:30.404Z,99126.47
2024-01-18T19:51:57.015Z,99127.81
2024-01-18T19:54:23.571Z,99127.09
2024-01-18T19:56:50.224Z,99131.38
2024-01-18T19:59:16.851Z,99128.41
2024-01-18T20:01:43.485Z,99147.69
2024-01-18T20:04:10.039Z,99144.31
2024-01-18T20:06:37.990Z,99160.28
2024-01-18T20:09:04.524Z,99151.75
2024-01-18T20:11:30.958Z,99177.69
2024-01-18T20:13:57.504Z,99170.53
2024-01-18T20:16:23.968Z,99182.50
2024-01-18T20:18:52.269Z,99189.25
2024-01-18T20:21:19.012Z,99186.84
2024-01-18T20:23:46.972Z,99197.53
2024-01-18T20:26:14.061Z,99204.28
2024-01-18T20:28:41.846Z,99197.38
2024-01-18T20:31:08.647Z,99202.00
2024-01-18T20:33:35.539Z,99207.53
2024-01-18T20:36:02.553Z,99211.09
2024-01-18T20:38:34.810Z,99210.63
2024-01-18T20:41:02.641Z,99214.44
2024-01-18T20:43:29.494Z,99228.75
2024-01-18T20:45:55.958Z,99224.47
2024-01-18T20:48:22.580Z,99225.56
2024-01-18T20:50:49.213Z,99236.53
2024-01-18T20:53:15.873Z,99242.03
2024-01-18T20:55:45.489Z,99253.25
2024-01-18T20:58:13.915Z,99252.16
2024-01-18T21:00:40.465Z,99262.50
2024-01-18T21:03:07.580Z,99265.25
2024-01-18T21:05:34.301Z,99273.28
2024-01-18T21:08:00.943Z,99270.81
2024-01-18T21:10:27.414Z,99277.41
2024-01-18T21:12:53.818Z,99286.84
2024-01-18T21:15:21.897Z,99285.13
2024-01-18T21:17:48.774Z,99290.75
2024-01-18T21:20:15.706Z,99288.88
2024-01-18T21:22:42.413Z,99298.63
2024-01-18T21:25:10.079Z,99293.28
2024-01-18T21:27:36.562Z,99310.09
2024-01-18T21:30:03.478Z,99308.44
2024-01-18T21:32:32.275Z,99303.06
2024-01-18T21:34:58.861Z,99310.28
2024-01-18T21:37:25.321Z,99322.75
2024-01-18T21:39:51.736Z,99332.22
2024-01-18T21:42:20.950Z,99336.03
2024-01-18T21:44:48.257Z,99338.84
2024-01-18T21:47:15.217Z,99338.91
2024-01-18T21:49:43.342Z,99353.03
2024-01-18T21:52:11.252Z,99346.50
2024-01-18T21:54:38.073Z,99354.59
2024-01-18T21:57:07.917Z,99355.50
2024-01-18T21:59:40.007Z,99359.13
2024-01-18T22:02:11.919Z,99354.09
2024-01-18T22:04:38.626Z,99356.84
2024-01-18T22:07:06.839Z,99358.78
2024-01-18T22:09:40.898Z,99357.66
2024-01-18T22:12:08.740Z,99367.72
2024-01-18T22:14:35.233Z,99375.75
2024-01-18T22:17:01.695Z,99373.31
2024-01-18T22:19:40.049Z,99375.84
2024-01-18T22:22:14.715Z,99374.19
2024-01-18T22:24:41.149Z,99383.06
2024-01-18T22:27:07.608Z,99381.00
2024-01-18T22:29:34.178Z,99386.41
2024-01-18T22:32:02.684Z,99391.78
2024-01-18T22:34:29.164Z,99389.78
2024-01-18T22:36:55.642Z,99395.03
2024-01-18T22:39:24.049Z,99387.91
2024-01-18T22:41:50.597Z,99396.84
2024-01-18T22:44:17.034Z,99399.47
2024-01-18T22:46:44.282Z,99404.88
2024-01-18T22:49:10.856Z,99405.66
2024-01-18T22:51:37.835Z,99413.19
2024-01-18T22:54:04.348Z,99410.81
2024-01-18T22:56:32.306Z,99408.59
2024-01-18T22:58:58.762Z,99416.44
2024-01-18T23:01:25.474Z,99411.06
2024-01-18T23:03:51.917Z,99411.84
2024-01-18T23:06:18.541Z,99412.69
2024-01-18T23:08:44.984Z,99415.78
2024-01-18T23:11:11.615Z,99428.56
2024-01-18T23:13:39.449Z,99425.81
2024-01-18T23:16:07.036Z,99428.00
2024-01-18T23:18:33.803Z,99425.50
2024-01-18T23:21:02.313Z,99426.28
2024-01-18T23:23:28.897Z,99425.53
2024-01-18T23:25:55.358Z,99434.38
2024-01-18T23:28:21.814Z,99439.78
2024-01-18T23:30:49.562Z,99443.28
2024-01-18T23:33:16.157Z,99438.97
2024-01-18T23:35:43.059Z,99440.78
2024-01-18T23:38:09.544Z,99442.25
2024-01-18T23:40:35.947Z,99439.75
2024-01-18T23:43:02.770Z,99445.03
2024-01-18T23:45:29.185Z,99457.44
2024-01-18T23:47:56.970Z,99457.28
2024-01-18T23:50:23.397Z,99459.06
2024-01-18T23:52:49.795Z,99464.03
2024-01-18T23:55:16.213Z,99455.44
2024-01-18T23:57:42.762Z,99455.81
